Time;durP1;ratioP1;P1;durP2;ratioP2;P2;SDS_P1;SDS_P2;PMS_P1;PMS_P2;Temp;Humidity;BMP_temperature;BMP_pressure;BME280_temperature;BME280_humidity;BME280_pressure;Samples;Min_cycle;Max_cycle;Signal;HPM_P1;HPM_P2
2023/05/20 00:01:59;;;;;;;10.00;3.72;;;13.20;99.90;;;;;;4867503;29;38631;-90
2023/05/20 00:04:28;;;;;;;12.52;3.67;;;13.20;99.90;;;;;;4856571;29;38289;-89
2023/05/20 00:07:00;;;;;;;10.65;3.63;;;13.20;99.90;;;;;;4860226;29;38372;-89
2023/05/20 00:09:38;;;;;;;11.50;4.60;;;13.10;99.90;;;;;;4822389;29;37330;-89
2023/05/20 00:12:05;;;;;;;8.93;4.13;;;13.10;99.90;;;;;;4834888;29;38293;-88
2023/05/20 00:14:31;;;;;;;11.07;4.45;;;13.00;99.90;;;;;;4821299;29;37705;-87
2023/05/20 00:16:58;;;;;;;15.00;5.40;;;13.00;99.90;;;;;;4816188;29;38513;-86
2023/05/20 00:19:24;;;;;;;12.55;3.58;;;12.90;99.90;;;;;;4816181;29;36023;-87
2023/05/20 00:21:52;;;;;;;12.80;5.10;;;12.90;99.90;;;;;;4812810;29;39953;-86
2023/05/20 00:24:18;;;;;;;10.80;4.70;;;12.90;99.90;;;;;;4815686;29;37797;-87
2023/05/20 00:26:45;;;;;;;9.73;4.20;;;12.90;99.90;;;;;;4818938;29;37308;-86
2023/05/20 00:29:13;;;;;;;8.90;4.28;;;12.90;99.90;;;;;;4817009;29;38415;-85
2023/05/20 00:31:39;;;;;;;10.85;4.93;;;12.90;99.90;;;;;;4812215;29;37616;-88
2023/05/20 00:34:05;;;;;;;10.40;5.32;;;12.90;99.90;;;;;;4809589;29;38358;-87
2023/05/20 00:36:32;;;;;;;10.27;4.93;;;12.80;99.90;;;;;;4808890;29;38950;-85
2023/05/20 00:38:58;;;;;;;12.73;5.20;;;12.80;99.90;;;;;;4811553;29;36419;-86
2023/05/20 00:41:24;;;;;;;16.98;5.85;;;12.80;99.90;;;;;;4816431;29;37538;-87
2023/05/20 00:43:53;;;;;;;9.80;4.38;;;12.70;99.90;;;;;;4818061;29;37906;-86
2023/05/20 00:46:20;;;;;;;11.18;4.45;;;12.70;99.90;;;;;;4813986;29;37708;-87
2023/05/20 00:48:46;;;;;;;13.52;4.50;;;12.70;99.90;;;;;;4817366;29;35988;-89
2023/05/20 00:51:13;;;;;;;11.50;4.32;;;12.70;99.90;;;;;;4810843;29;37667;-87
2023/05/20 00:53:40;;;;;;;10.07;4.72;;;12.70;99.90;;;;;;4817086;29;38812;-88
2023/05/20 00:56:08;;;;;;;9.23;4.38;;;12.70;99.90;;;;;;4808058;29;37575;-87
2023/05/20 00:58:36;;;;;;;8.40;4.22;;;12.70;99.90;;;;;;4816516;29;37115;-89
2023/05/20 05:24:57;;;;;;;6.13;3.88;;;13.30;99.90;;;;;;4877261;23;20054;-82
2023/05/20 05:27:23;;;;;;;7.72;3.63;;;13.60;99.90;;;;;;4862668;29;38030;-81
2023/05/20 05:29:50;;;;;;;9.10;3.90;;;13.60;99.90;;;;;;4855711;29;38444;-83
2023/05/20 05:32:16;;;;;;;10.40;3.97;;;13.80;99.90;;;;;;4849856;29;39686;-84
2023/05/20 05:34:42;;;;;;;6.25;3.60;;;13.80;99.90;;;;;;4848650;29;38988;-84
2023/05/20 05:37:08;;;;;;;9.85;4.43;;;13.90;99.90;;;;;;4847795;29;38124;-83
2023/05/20 05:39:36;;;;;;;9.70;3.88;;;13.90;99.90;;;;;;4848013;29;36468;-83
2023/05/20 05:42:03;;;;;;;7.15;4.10;;;14.00;20.10;;;;;;4847958;29;38224;-83
2023/05/20 05:44:29;;;;;;;9.55;3.65;;;13.80;10.80;;;;;;4849716;29;39911;-83
2023/05/20 05:46:56;;;;;;;9.55;4.07;;;13.70;22.40;;;;;;4851961;29;38325;-83
2023/05/20 05:49:22;;;;;;;9.35;4.03;;;13.90;21.20;;;;;;4853130;29;36416;-83
2023/05/20 05:51:49;;;;;;;8.32;3.38;;;14.10;12.20;;;;;;4855663;29;38460;-82
2023/05/20 05:54:16;;;;;;;7.25;3.78;;;14.30;10.80;;;;;;4857450;29;38529;-85
2023/05/20 05:56:42;;;;;;;7.65;3.22;;;14.50;1.00;;;;;;4845025;29;37153;-84
2023/05/20 05:59:08;;;;;;;8.63;4.10;;;14.30;1.00;;;;;;4847301;29;36198;-83
2023/05/20 06:01:36;;;;;;;10.07;3.65;;;14.30;11.40;;;;;;4847798;29;38935;-87
2023/05/20 06:04:02;;;;;;;9.00;3.92;;;14.40;1.00;;;;;;4847420;29;37773;-86
2023/05/20 06:06:28;;;;;;;8.75;4.03;;;14.60;1.00;;;;;;4844402;29;39318;-85
2023/05/20 06:08:54;;;;;;;7.43;3.67;;;14.70;1.00;;;;;;4852568;29;36213;-83
2023/05/20 06:11:21;;;;;;;6.97;3.70;;;15.00;1.00;;;;;;4844720;29;39104;-85
2023/05/20 06:13:47;;;;;;;10.13;4.07;;;14.90;1.00;;;;;;4848645;29;39194;-86
2023/05/20 06:16:13;;;;;;;9.90;3.55;;;15.10;1.00;;;;;;4850963;29;38521;-85
2023/05/20 06:18:40;;;;;;;8.77;3.83;;;15.10;1.00;;;;;;4846866;29;36146;-85
2023/05/20 06:21:06;;;;;;;7.63;3.80;;;15.10;1.00;;;;;;4852603;29;38070;-87
2023/05/20 06:23:32;;;;;;;9.60;3.58;;;15.10;1.00;;;;;;4844762;29;36787;-85
2023/05/20 06:25:59;;;;;;;7.10;3.47;;;15.30;1.00;;;;;;4845655;29;38595;-84
2023/05/20 06:28:26;;;;;;;6.55;3.55;;;15.30;1.00;;;;;;4857487;29;36089;-85
2023/05/20 06:30:56;;;;;;;7.13;3.58;;;15.30;1.00;;;;;;4845021;29;38838;-87
2023/05/20 06:33:26;;;;;;;9.48;3.85;;;15.50;1.00;;;;;;4844603;29;39823;-87
2023/05/20 06:35:56;;;;;;;8.55;3.67;;;15.50;1.00;;;;;;4843555;29;37699;-88
2023/05/20 06:38:22;;;;;;;9.85;3.45;;;15.50;1.00;;;;;;4852637;29;37226;-83
2023/05/20 06:40:48;;;;;;;7.88;3.55;;;15.70;1.00;;;;;;4844266;29;38850;-87
2023/05/20 06:43:15;;;;;;;9.75;4.07;;;15.80;1.00;;;;;;4842713;29;39280;-83
2023/05/20 06:45:41;;;;;;;10.65;4.03;;;16.00;1.00;;;;;;4840808;29;37692;-82
2023/05/20 06:48:07;;;;;;;6.57;3.25;;;16.00;1.00;;;;;;4839953;29;36449;-84
2023/05/20 06:50:34;;;;;;;8.85;4.13;;;16.20;1.00;;;;;;4841416;29;39054;-86
2023/05/20 06:53:00;;;;;;;12.77;3.60;;;16.30;1.00;;;;;;4845451;29;36303;-86
2023/05/20 06:55:26;;;;;;;7.30;3.58;;;16.40;1.00;;;;;;4856863;29;38751;-87
2023/05/20 06:57:53;;;;;;;9.00;3.28;;;16.50;1.00;;;;;;4841210;29;37161;-83
2023/05/20 07:00:19;;;;;;;8.88;3.75;;;16.60;1.00;;;;;;4839522;29;38255;-84
2023/05/20 07:02:45;;;;;;;9.43;3.92;;;16.60;1.00;;;;;;4847561;29;38217;-84
2023/05/20 07:05:11;;;;;;;8.68;3.28;;;16.50;1.00;;;;;;4847274;29;38766;-85
2023/05/20 07:07:40;;;;;;;7.38;3.50;;;16.70;1.00;;;;;;4850296;29;35993;-79
2023/05/20 07:10:06;;;;;;;5.88;3.22;;;17.00;1.00;;;;;;4849743;29;39830;-85
2023/05/20 07:12:33;;;;;;;5.75;3.53;;;17.20;1.00;;;;;;4844346;29;38337;-86
2023/05/20 07:15:00;;;;;;;5.88;3.70;;;17.10;1.00;;;;;;4845952;29;38633;-83
2023/05/20 07:17:28;;;;;;;8.32;3.47;;;17.20;1.00;;;;;;4861222;29;36160;-84
2023/05/20 07:19:55;;;;;;;6.90;3.17;;;17.20;1.00;;;;;;4850682;29;38962;-85
2023/05/20 07:22:21;;;;;;;7.97;3.35;;;17.00;99.90;;;;;;4844199;29;38940;-83
2023/05/20 07:24:47;;;;;;;8.52;3.22;;;17.10;1.00;;;;;;4855277;29;37727;-83
2023/05/20 07:27:13;;;;;;;9.07;3.45;;;17.10;99.90;;;;;;4846438;29;37174;-83
2023/05/20 07:29:39;;;;;;;4.50;3.30;;;17.30;99.90;;;;;;4840169;29;38000;-85
2023/05/20 07:32:09;;;;;;;6.85;3.30;;;17.70;1.00;;;;;;4849599;29;37490;-85
2023/05/20 07:34:35;;;;;;;9.15;3.20;;;18.10;99.90;;;;;;4846638;29;37417;-81
2023/05/20 07:37:01;;;;;;;5.85;3.28;;;18.30;99.90;;;;;;4845976;29;36044;-78
2023/05/20 07:39:27;;;;;;;5.90;2.90;;;18.40;1.00;;;;;;4851219;29;39040;-78
2023/05/20 07:41:53;;;;;;;7.00;3.50;;;18.50;1.20;;;;;;4852420;29;38463;-81
2023/05/20 07:44:21;;;;;;;9.43;3.72;;;18.60;1.00;;;;;;4853294;29;37671;-85
2023/05/20 07:46:47;;;;;;;6.20;3.25;;;18.70;1.00;;;;;;4844116;29;36637;-82
2023/05/20 07:49:14;;;;;;;5.80;2.97;;;18.80;1.00;;;;;;4853240;29;38010;-80
2023/05/20 07:51:40;;;;;;;6.20;3.03;;;18.80;99.90;;;;;;4864680;29;38480;-86
2023/05/20 07:54:06;;;;;;;3.70;2.67;;;18.70;99.90;;;;;;4861848;29;38568;-82
2023/05/20 07:56:33;;;;;;;8.25;3.17;;;18.80;99.90;;;;;;4838950;29;36030;-81
2023/05/20 07:58:59;;;;;;;8.93;3.38;;;19.00;1.00;;;;;;4838230;29;39521;-88
2023/05/20 08:01:26;;;;;;;6.72;3.58;;;19.20;99.90;;;;;;4845107;29;37024;-83
2023/05/20 08:03:52;;;;;;;7.93;3.53;;;18.90;42.70;;;;;;4839731;29;38300;-76
2023/05/20 08:06:19;;;;;;;9.80;3.13;;;18.80;1.00;;;;;;4838218;29;36877;-81
2023/05/20 08:08:46;;;;;;;7.47;3.35;;;19.30;99.90;;;;;;4837022;29;37276;-82
2023/05/20 08:11:12;;;;;;;4.18;2.40;;;19.50;1.00;;;;;;4846299;29;38667;-81
2023/05/20 08:13:39;;;;;;;9.15;3.15;;;19.70;1.00;;;;;;4843069;29;37196;-83
2023/05/20 08:16:05;;;;;;;5.45;3.33;;;20.00;1.00;;;;;;4841204;29;36506;-82
2023/05/20 08:18:32;;;;;;;5.28;2.95;;;19.90;26.80;;;;;;4845090;29;39135;-81
2023/05/20 08:20:58;;;;;;;6.80;3.30;;;20.00;1.00;;;;;;4861396;29;37689;-84
2023/05/20 08:23:25;;;;;;;5.05;3.35;;;20.00;1.00;;;;;;4843603;29;39079;-81
2023/05/20 08:25:51;;;;;;;7.20;3.42;;;19.90;99.90;;;;;;4843559;29;36883;-86
2023/05/20 08:28:17;;;;;;;6.93;2.97;;;20.10;99.90;;;;;;4848750;29;37657;-86
2023/05/20 08:30:43;;;;;;;8.70;3.30;;;20.30;1.00;;;;;;4855886;29;38443;-82
2023/05/20 08:33:11;;;;;;;7.95;3.17;;;20.30;99.90;;;;;;4844228;29;38312;-77
2023/05/20 08:35:39;;;;;;;4.75;3.03;;;20.50;1.00;;;;;;4858715;29;35062;-80
2023/05/20 08:38:05;;;;;;;6.55;3.15;;;20.40;1.00;;;;;;4845410;29;39543;-79
2023/05/20 08:40:34;;;;;;;5.72;3.50;;;20.40;1.00;;;;;;4848315;29;37431;-79
2023/05/20 08:43:01;;;;;;;8.13;2.67;;;20.30;1.00;;;;;;4851036;29;35325;-78
2023/05/20 08:45:33;;;;;;;5.57;2.50;;;20.50;1.00;;;;;;4852208;29;47882;-79
2023/05/20 08:47:59;;;;;;;;;;;20.40;99.90;;;;;;4863350;29;36530;-80
2023/05/20 08:50:26;;;;;;;4.80;2.70;;;20.00;99.90;;;;;;4850732;29;37919;-80
2023/05/20 08:52:52;;;;;;;7.70;2.10;;;20.20;99.90;;;;;;4852747;29;38708;-78
2023/05/20 08:55:25;;;;;;;5.50;2.40;;;20.60;1.00;;;;;;4846295;29;35832;-80
2023/05/20 08:57:55;;;;;;;6.20;3.00;;;20.80;99.90;;;;;;4848148;29;39404;-79
2023/05/20 09:00:27;;;;;;;5.97;2.40;;;20.80;1.00;;;;;;4853695;29;37055;-79
2023/05/20 09:02:54;;;;;;;7.40;3.20;;;20.60;99.90;;;;;;4850767;29;37318;-80
2023/05/20 09:05:21;;;;;;;8.55;3.28;;;20.70;1.00;;;;;;4844381;29;37363;-81
2023/05/20 09:07:48;;;;;;;6.88;2.70;;;20.40;48.40;;;;;;4849955;29;39155;-82
2023/05/20 09:10:14;;;;;;;5.95;2.67;;;20.20;1.00;;;;;;4850881;29;39147;-80
2023/05/20 09:12:40;;;;;;;5.95;2.28;;;20.40;99.90;;;;;;4847709;29;36196;-81
2023/05/20 09:15:07;;;;;;;5.53;2.47;;;20.90;1.00;;;;;;4852422;29;36958;-81
2023/05/20 09:17:37;;;;;;;3.28;2.10;;;21.40;1.00;;;;;;4852474;29;39222;-82
2023/05/20 09:20:10;;;;;;;5.00;2.55;;;21.60;85.20;;;;;;4858307;29;37809;-83
2023/05/20 09:22:38;;;;;;;7.07;2.42;;;21.60;1.00;;;;;;4844447;29;48152;-80
2023/05/20 09:25:05;;;;;;;8.50;3.03;;;21.30;1.00;;;;;;4850185;29;37060;-81
2023/05/20 09:27:31;;;;;;;7.20;2.17;;;21.00;1.00;;;;;;4845201;29;38042;-82
2023/05/20 09:29:57;;;;;;;5.07;2.42;;;20.90;1.00;;;;;;4852235;29;37905;-81
2023/05/20 09:32:26;;;;;;;4.65;2.50;;;21.30;1.00;;;;;;4847544;29;37452;-81
2023/05/20 09:34:53;;;;;;;6.13;2.50;;;21.20;99.90;;;;;;4853455;29;36985;-82
2023/05/20 09:37:20;;;;;;;6.85;2.13;;;21.40;1.00;;;;;;4854969;29;37752;-81
2023/05/20 09:40:20;;;;;;;8.10;3.45;;;21.70;1.00;;;;;;4851945;29;37948;-81
2023/05/20 09:43:17;;;;;;;5.30;2.47;;;21.20;99.90;;;;;;4847472;29;47627;-82
2023/05/20 09:45:43;;;;;;;7.50;2.30;;;21.10;99.90;;;;;;4836339;29;47140;-82
2023/05/20 09:48:11;;;;;;;2.97;1.92;;;21.10;99.90;;;;;;4844706;29;38979;-82
2023/05/20 09:50:38;;;;;;;4.53;2.33;;;21.10;1.00;;;;;;4849969;29;37886;-82
2023/05/20 09:53:06;;;;;;;2.47;1.90;;;21.30;1.00;;;;;;4849300;29;38682;-81
2023/05/20 09:55:33;;;;;;;5.00;2.00;;;21.20;99.90;;;;;;4852081;29;37017;-80
2023/05/20 09:58:02;;;;;;;5.50;1.80;;;21.40;1.00;;;;;;4844465;29;40041;-80
2023/05/20 10:00:28;;;;;;;3.17;1.80;;;20.70;1.00;;;;;;4842744;29;48392;-81
2023/05/20 10:02:55;;;;;;;2.08;1.40;;;20.10;62.80;;;;;;4848179;29;38087;-81
2023/05/20 10:05:28;;;;;;;3.78;1.98;;;19.90;41.00;;;;;;4848728;29;37315;-80
2023/05/20 10:08:16;;;;;;;5.15;1.50;;;20.10;66.80;;;;;;4851126;29;37708;-83
2023/05/20 10:10:46;;;;;;;3.33;1.30;;;20.10;1.00;;;;;;4848566;29;48028;-77
2023/05/20 10:13:18;;;;;;;5.28;1.92;;;20.80;1.00;;;;;;4850053;29;38933;-82
2023/05/20 10:15:58;;;;;;;;;;;20.90;1.00;;;;;;4842798;29;38188;-80
2023/05/20 10:18:44;;;;;;;4.68;1.60;;;21.10;1.00;;;;;;4849549;29;39392;-81
2023/05/20 10:21:17;;;;;;;5.20;1.50;;;21.20;1.00;;;;;;4843810;29;38735;-81
2023/05/20 10:23:44;;;;;;;6.53;1.42;;;20.50;1.00;;;;;;4863682;29;38720;-81
2023/05/20 10:26:10;;;;;;;3.08;1.55;;;20.90;1.00;;;;;;4838347;29;37737;-85
2023/05/20 10:28:39;;;;;;;3.28;1.67;;;20.70;1.00;;;;;;4842714;29;37828;-82
2023/05/20 10:31:22;;;;;;;3.67;1.67;;;20.50;1.00;;;;;;4838672;29;37130;-83
2023/05/20 10:33:52;;;;;;;4.55;1.90;;;20.70;1.00;;;;;;4842135;29;39507;-82
2023/05/20 10:36:30;;;;;;;3.20;2.00;;;21.50;1.00;;;;;;4841181;29;37395;-82
2023/05/20 10:38:58;;;;;;;3.22;1.67;;;21.50;1.00;;;;;;4845310;29;38721;-82
2023/05/20 10:41:26;;;;;;;4.10;1.52;;;21.80;1.00;;;;;;4846847;29;38920;-82
2023/05/20 10:44:02;;;;;;;3.58;1.90;;;21.90;1.00;;;;;;4846648;29;39103;-84
2023/05/20 10:46:32;;;;;;;2.90;1.60;;;22.00;1.00;;;;;;4846370;29;47399;-81
2023/05/20 10:49:01;;;;;;;3.05;1.50;;;21.70;1.00;;;;;;4846701;29;37788;-82
2023/05/20 10:51:35;;;;;;;3.35;1.40;;;21.40;1.00;;;;;;4857768;29;47433;-81
2023/05/20 10:54:02;;;;;;;4.95;1.83;;;22.00;1.00;;;;;;4850274;29;37742;-82
2023/05/20 10:56:28;;;;;;;2.33;1.50;;;22.20;99.90;;;;;;4849694;29;37109;-83
2023/05/20 10:58:54;;;;;;;5.05;1.42;;;22.00;99.90;;;;;;4846478;29;39586;-82
2023/05/20 11:01:25;;;;;;;6.13;1.90;;;21.80;99.90;;;;;;4848499;29;40187;-83
2023/05/20 11:03:54;;;;;;;2.23;1.40;;;22.00;99.90;;;;;;4847963;29;37780;-82
2023/05/20 11:06:27;;;;;;;1.95;1.40;;;21.90;99.90;;;;;;4841000;29;37951;-80
2023/05/20 11:08:54;;;;;;;3.28;1.60;;;22.30;99.90;;;;;;4846703;29;39385;-86
2023/05/20 11:11:21;;;;;;;2.10;1.50;;;22.10;99.90;;;;;;4845799;29;39400;-86
2023/05/20 11:13:51;;;;;;;3.13;1.67;;;21.40;99.90;;;;;;4852133;29;38061;-86
2023/05/20 11:16:20;;;;;;;5.75;1.80;;;21.40;99.90;;;;;;4852479;29;35755;-78
2023/05/20 11:18:49;;;;;;;4.72;1.90;;;20.70;99.90;;;;;;4848208;29;38516;-87
2023/05/20 11:21:15;;;;;;;2.45;1.52;;;20.80;99.90;;;;;;4862040;29;38402;-81
2023/05/20 11:23:43;;;;;;;2.30;1.50;;;20.90;99.90;;;;;;4864676;29;37521;-90
2023/05/20 11:26:10;;;;;;;1.65;1.55;;;20.90;99.90;;;;;;4858522;29;36199;-85
2023/05/20 11:28:36;;;;;;;3.22;1.70;;;21.00;99.90;;;;;;4844347;29;38563;-88
2023/05/20 11:31:07;;;;;;;4.10;1.80;;;21.40;99.90;;;;;;4856649;29;38214;-87
2023/05/20 11:33:34;;;;;;;4.72;2.05;;;21.20;99.90;;;;;;4849106;29;37290;-84
2023/05/20 11:36:01;;;;;;;3.22;1.73;;;21.00;99.90;;;;;;4847324;29;35464;-84
2023/05/20 11:38:28;;;;;;;6.18;1.92;;;21.00;99.90;;;;;;4846966;29;46867;-85
2023/05/20 11:40:55;;;;;;;3.92;1.80;;;21.10;99.90;;;;;;4854625;29;38542;-84
2023/05/20 11:43:22;;;;;;;6.32;1.63;;;21.20;99.90;;;;;;4854157;29;37689;-85
2023/05/20 11:45:58;;;;;;;5.57;1.70;;;21.30;99.90;;;;;;4855791;29;37347;-85
2023/05/20 11:48:24;;;;;;;6.28;2.00;;;21.90;99.90;;;;;;4869097;29;38181;-84
2023/05/20 11:50:53;;;;;;;5.93;1.73;;;22.40;99.90;;;;;;4857000;29;38964;-84
2023/05/20 11:53:21;;;;;;;3.15;1.65;;;22.60;99.90;;;;;;4853145;29;37317;-87
2023/05/20 11:55:53;;;;;;;9.73;1.98;;;22.80;99.90;;;;;;4854345;29;37433;-86
2023/05/20 11:58:28;;;;;;;2.97;1.38;;;22.40;99.90;;;;;;4859428;29;37875;-85
2023/05/20 12:00:55;;;;;;;7.05;1.80;;;22.10;93.10;;;;;;4858560;29;39233;-86
2023/05/20 12:03:22;;;;;;;4.40;1.67;;;21.90;99.90;;;;;;4856009;29;39581;-86
2023/05/20 12:05:49;;;;;;;5.80;1.63;;;22.30;99.90;;;;;;4859005;29;36760;-86
2023/05/20 12:08:16;;;;;;;5.07;1.48;;;22.90;99.90;;;;;;4869807;29;38646;-86
2023/05/20 12:10:43;;;;;;;2.85;1.60;;;22.60;53.50;;;;;;4852550;29;38933;-86
2023/05/20 12:13:12;;;;;;;5.70;2.00;;;22.60;99.90;;;;;;4857526;29;37325;-85
2023/05/20 12:15:39;;;;;;;3.10;1.45;;;22.90;99.90;;;;;;4857711;29;36326;-86
2023/05/20 12:18:05;;;;;;;5.38;1.40;;;22.90;83.10;;;;;;4855079;29;37769;-85
2023/05/20 12:20:33;;;;;;;5.07;1.75;;;22.70;97.80;;;;;;4856348;29;37640;-87
2023/05/20 12:23:02;;;;;;;4.78;1.80;;;22.50;40.60;;;;;;4855660;29;37460;-86
2023/05/20 12:25:29;;;;;;;7.82;1.35;;;22.70;54.80;;;;;;4850284;29;48522;-87
2023/05/20 12:27:55;;;;;;;4.03;1.50;;;22.70;95.00;;;;;;4846425;29;37752;-81
2023/05/20 12:30:22;;;;;;;4.03;1.98;;;23.00;51.50;;;;;;4850257;29;37924;-86
2023/05/20 12:32:50;;;;;;;4.90;1.40;;;23.00;11.10;;;;;;4849592;29;38098;-86
2023/05/20 12:35:18;;;;;;;5.10;1.60;;;22.80;52.70;;;;;;4847617;29;38835;-88
2023/05/20 12:37:44;;;;;;;4.57;1.50;;;22.70;21.60;;;;;;4857121;29;39540;-91
2023/05/20 12:40:11;;;;;;;4.28;1.33;;;22.70;77.30;;;;;;4862413;29;38543;-87
2023/05/20 12:42:39;;;;;;;2.72;1.50;;;22.90;24.00;;;;;;4849067;29;37844;-86
2023/05/20 12:45:07;;;;;;;2.85;1.65;;;22.60;81.50;;;;;;4849058;29;36367;-85
2023/05/20 12:47:34;;;;;;;4.28;1.73;;;22.90;99.90;;;;;;4850167;29;38004;-87
2023/05/20 12:50:01;;;;;;;2.85;1.60;;;23.20;35.80;;;;;;4850459;29;37751;-86
2023/05/20 12:52:27;;;;;;;4.32;1.60;;;23.40;99.90;;;;;;4848371;29;38737;-86
2023/05/20 12:54:55;;;;;;;4.78;1.90;;;23.00;1.90;;;;;;4846024;29;36390;-85
2023/05/20 12:57:24;;;;;;;4.60;1.60;;;22.10;1.00;;;;;;4846795;29;38313;-85
2023/05/20 12:59:50;;;;;;;3.85;1.80;;;21.40;9.20;;;;;;4852632;29;38230;-86
2023/05/20 13:02:16;;;;;;;4.72;1.48;;;21.30;99.90;;;;;;4851702;29;39561;-85
2023/05/20 13:04:42;;;;;;;3.88;1.38;;;21.90;99.90;;;;;;4850590;29;35970;-85
2023/05/20 13:07:08;;;;;;;4.88;1.52;;;22.30;99.90;;;;;;4854986;29;36065;-85
2023/05/20 13:09:35;;;;;;;2.67;1.75;;;22.30;99.90;;;;;;4854972;29;39023;-86
2023/05/20 13:12:01;;;;;;;3.60;1.77;;;22.20;80.80;;;;;;4858636;29;38483;-86
2023/05/20 13:14:27;;;;;;;3.42;2.00;;;22.10;99.90;;;;;;4856823;29;47684;-90
2023/05/20 13:16:54;;;;;;;3.47;1.30;;;21.60;86.00;;;;;;4854899;29;37502;-90
2023/05/20 13:19:23;;;;;;;4.00;1.77;;;21.40;99.90;;;;;;4850088;29;38699;-89
2023/05/20 13:21:50;;;;;;;7.10;2.03;;;21.10;99.90;;;;;;4854025;29;38878;-88
2023/05/20 13:24:17;;;;;;;4.68;1.88;;;21.00;99.90;;;;;;4852351;29;35979;-87
2023/05/20 13:26:44;;;;;;;4.07;1.58;;;21.30;99.90;;;;;;4868645;29;37664;-89
2023/05/20 13:29:11;;;;;;;3.03;1.80;;;21.50;99.90;;;;;;4853923;29;38195;-87
2023/05/20 13:31:38;;;;;;;5.70;1.38;;;21.40;99.90;;;;;;4850116;29;37477;-84
2023/05/20 13:34:04;;;;;;;2.67;1.50;;;21.70;99.90;;;;;;4852459;29;36986;-84
2023/05/20 13:36:31;;;;;;;3.17;1.48;;;22.00;99.90;;;;;;4854238;29;38668;-86
2023/05/20 13:38:57;;;;;;;7.03;1.83;;;22.10;99.90;;;;;;4853175;29;37796;-84
2023/05/20 13:41:25;;;;;;;2.92;1.65;;;22.00;99.90;;;;;;4849404;29;37759;-84
2023/05/20 13:43:51;;;;;;;3.60;1.70;;;21.70;99.90;;;;;;4854210;29;36503;-83
2023/05/20 13:46:17;;;;;;;3.20;1.58;;;21.70;99.90;;;;;;4853855;29;37710;-84
2023/05/20 13:48:44;;;;;;;3.75;1.65;;;21.60;99.90;;;;;;4853377;29;38896;-85
2023/05/20 13:51:10;;;;;;;3.53;1.30;;;21.90;99.90;;;;;;4858154;29;39959;-83
2023/05/20 13:53:36;;;;;;;2.80;1.52;;;21.70;99.90;;;;;;4852282;29;37856;-83
2023/05/20 13:56:04;;;;;;;3.17;1.40;;;21.60;99.90;;;;;;4864843;29;37868;-83
2023/05/20 13:58:30;;;;;;;3.15;1.55;;;21.90;99.90;;;;;;4850106;29;39602;-87
2023/05/20 14:00:58;;;;;;;3.13;1.35;;;21.90;99.90;;;;;;4849145;29;36955;-84
2023/05/20 14:03:24;;;;;;;6.38;1.50;;;21.70;99.90;;;;;;4846268;29;36672;-85
2023/05/20 14:05:51;;;;;;;2.38;1.42;;;21.70;99.90;;;;;;4863108;29;38030;-85
2023/05/20 14:08:17;;;;;;;4.05;1.60;;;21.70;99.90;;;;;;4853135;29;38392;-84
2023/05/20 14:10:43;;;;;;;5.57;1.70;;;21.70;99.90;;;;;;4853079;29;37244;-84
2023/05/20 14:13:09;;;;;;;4.10;1.85;;;21.90;99.90;;;;;;4852769;29;37121;-85
2023/05/20 14:15:35;;;;;;;4.75;1.88;;;22.20;99.90;;;;;;4852392;29;37881;-86
2023/05/20 14:18:02;;;;;;;8.90;1.95;;;22.10;99.90;;;;;;4853735;29;37743;-84
2023/05/20 14:20:28;;;;;;;7.43;1.33;;;21.60;99.90;;;;;;4853967;29;38803;-85
2023/05/20 14:22:54;;;;;;;2.40;1.95;;;21.50;99.90;;;;;;4851767;29;37425;-86
2023/05/20 14:25:20;;;;;;;2.25;1.52;;;21.50;99.90;;;;;;4851140;29;37874;-83
2023/05/20 14:27:46;;;;;;;2.70;1.80;;;21.20;99.90;;;;;;4853397;29;39908;-85
2023/05/20 14:30:12;;;;;;;1.73;1.58;;;21.60;99.90;;;;;;4846550;29;37307;-84
2023/05/20 14:32:39;;;;;;;4.97;1.70;;;21.80;99.90;;;;;;4853252;29;37268;-86
2023/05/20 14:35:05;;;;;;;2.95;1.77;;;22.00;99.90;;;;;;4854111;29;37666;-85
2023/05/20 14:37:31;;;;;;;4.63;1.52;;;22.00;99.90;;;;;;4852514;29;38166;-84
2023/05/20 14:39:57;;;;;;;3.88;1.67;;;22.00;99.90;;;;;;4853670;29;37247;-85
2023/05/20 14:42:24;;;;;;;5.10;1.77;;;22.50;99.90;;;;;;4854051;29;36083;-87
2023/05/20 14:44:50;;;;;;;6.97;1.60;;;22.60;99.90;;;;;;4868275;29;37830;-86
2023/05/20 14:47:20;;;;;;;3.20;1.50;;;22.00;99.90;;;;;;4846911;29;39830;-83
2023/05/20 14:49:48;;;;;;;6.70;1.75;;;21.60;99.90;;;;;;4847398;29;37685;-85
2023/05/20 14:52:15;;;;;;;3.53;1.73;;;21.30;99.90;;;;;;4838747;29;36429;-84
2023/05/20 14:54:41;;;;;;;3.80;1.33;;;21.20;1.00;;;;;;4850256;29;37584;-81
2023/05/20 14:57:07;;;;;;;5.45;1.70;;;21.60;1.00;;;;;;4835180;29;40764;-80
2023/05/20 14:59:33;;;;;;;5.40;2.13;;;21.70;99.90;;;;;;4842687;29;41037;-82
2023/05/20 15:02:00;;;;;;;4.18;1.70;;;21.90;99.90;;;;;;4838585;29;36206;-83
2023/05/20 15:04:26;;;;;;;5.45;1.70;;;21.90;99.90;;;;;;4844517;29;38418;-84
2023/05/20 15:06:52;;;;;;;5.68;1.70;;;22.10;99.90;;;;;;4846025;29;38465;-84
2023/05/20 15:09:19;;;;;;;4.97;1.45;;;22.30;99.90;;;;;;4851366;29;37674;-87
2023/05/20 15:11:45;;;;;;;2.92;1.50;;;22.60;99.90;;;;;;4845142;29;36808;-87
2023/05/20 15:14:11;;;;;;;2.92;1.60;;;22.20;99.90;;;;;;4844771;29;38363;-87
2023/05/20 15:16:37;;;;;;;8.88;1.90;;;21.50;99.90;;;;;;4853250;29;37565;-85
2023/05/20 15:19:03;;;;;;;5.68;1.75;;;21.40;99.90;;;;;;4847854;29;38456;-85
2023/05/20 15:21:30;;;;;;;5.80;1.60;;;21.70;99.90;;;;;;4843973;29;36548;-86
2023/05/20 15:23:56;;;;;;;3.03;1.70;;;22.20;99.90;;;;;;4848095;29;37937;-85
2023/05/20 15:26:23;;;;;;;4.72;1.60;;;22.50;99.90;;;;;;4846406;29;37767;-85
2023/05/20 15:28:49;;;;;;;7.38;1.50;;;21.90;99.90;;;;;;4831983;29;37259;-85
2023/05/20 15:31:16;;;;;;;7.55;1.77;;;21.40;99.90;;;;;;4853059;29;36319;-90
2023/05/20 15:33:42;;;;;;;6.70;1.83;;;20.90;99.90;;;;;;4859418;29;38017;-91
2023/05/20 15:36:08;;;;;;;12.52;1.92;;;20.60;99.90;;;;;;4858094;29;37580;-87
2023/05/20 15:38:34;;;;;;;4.70;1.80;;;20.50;99.90;;;;;;4856624;29;38918;-86
2023/05/20 15:41:01;;;;;;;5.65;1.77;;;20.60;99.90;;;;;;4863345;29;38374;-86
2023/05/20 15:43:27;;;;;;;2.47;1.30;;;20.90;99.90;;;;;;4851228;29;46549;-83
2023/05/20 15:45:53;;;;;;;4.78;1.60;;;21.20;99.90;;;;;;4863569;29;37567;-86
2023/05/20 15:48:20;;;;;;;3.58;1.90;;;21.40;99.90;;;;;;4852899;29;37684;-88
2023/05/20 15:50:47;;;;;;;2.47;1.67;;;21.60;99.90;;;;;;4854459;29;37908;-89
2023/05/20 15:53:14;;;;;;;2.85;1.55;;;21.70;99.90;;;;;;4851655;29;37456;-86
2023/05/20 15:55:40;;;;;;;4.05;1.80;;;21.80;99.90;;;;;;4862245;29;37960;-88
2023/05/20 15:58:09;;;;;;;2.47;1.60;;;21.60;99.90;;;;;;4862889;29;39161;-87
2023/05/20 16:00:35;;;;;;;2.80;1.63;;;21.60;99.90;;;;;;4848730;29;37171;-86
2023/05/20 16:03:01;;;;;;;5.68;1.60;;;21.50;99.90;;;;;;4843936;29;39111;-87
2023/05/20 16:05:28;;;;;;;3.63;2.00;;;21.60;99.90;;;;;;4860183;29;47268;-87
2023/05/20 16:07:55;;;;;;;5.95;1.40;;;21.50;99.90;;;;;;4857388;29;37639;-85
2023/05/20 16:10:30;;;;;;;2.92;1.40;;;21.60;99.90;;;;;;4846020;29;36367;-82
2023/05/20 16:12:58;;;;;;;5.72;1.70;;;21.70;99.90;;;;;;4868371;29;36889;-88
2023/05/20 16:15:25;;;;;;;4.22;1.58;;;21.70;99.90;;;;;;4866098;29;37864;-88
2023/05/20 16:17:51;;;;;;;3.40;1.85;;;21.60;99.90;;;;;;4847672;29;37655;-84
2023/05/20 16:20:18;;;;;;;2.53;1.30;;;21.50;99.90;;;;;;4856691;29;37759;-82
2023/05/20 16:22:44;;;;;;;4.80;1.60;;;21.70;99.90;;;;;;4854218;29;39110;-90
2023/05/20 16:25:39;;;;;;;3.50;1.23;;;21.80;99.90;;;;;;4859786;29;39147;-91
2023/05/20 16:28:05;;;;;;;4.85;1.70;;;21.50;99.90;;;;;;4856319;29;38110;-87
2023/05/20 16:30:38;;;;;;;4.47;1.38;;;21.30;99.90;;;;;;4855306;29;38720;-89
2023/05/20 16:33:07;;;;;;;5.45;1.40;;;21.10;99.90;;;;;;4854725;29;37714;-83
2023/05/20 16:35:34;;;;;;;3.55;1.63;;;20.80;99.90;;;;;;4854916;29;37850;-85
2023/05/20 16:38:00;;;;;;;4.40;1.83;;;20.60;99.90;;;;;;4858660;29;39398;-85
2023/05/20 16:40:28;;;;;;;2.63;1.90;;;20.50;99.90;;;;;;4858733;29;36316;-88
2023/05/20 16:42:54;;;;;;;3.92;1.50;;;20.30;1.00;;;;;;4859430;29;38173;-88
2023/05/20 16:45:20;;;;;;;5.28;1.80;;;20.50;1.00;;;;;;4856349;29;37849;-84
2023/05/20 16:47:47;;;;;;;3.75;2.05;;;20.70;1.00;;;;;;4867580;29;37558;-84
2023/05/20 16:50:13;;;;;;;2.53;1.90;;;20.70;1.00;;;;;;4848139;29;37539;-86
2023/05/20 16:52:40;;;;;;;3.42;1.73;;;20.70;1.00;;;;;;4857148;29;38936;-86
2023/05/20 16:55:07;;;;;;;4.90;1.73;;;20.80;1.00;;;;;;4855175;29;38675;-86
2023/05/20 16:57:34;;;;;;;6.10;2.38;;;21.00;1.00;;;;;;4854572;29;38604;-85
2023/05/20 17:00:00;;;;;;;4.22;1.63;;;21.10;1.00;;;;;;4865057;29;36577;-85
2023/05/20 17:02:26;;;;;;;5.10;1.60;;;21.00;1.00;;;;;;4855954;29;37724;-86
2023/05/20 17:04:53;;;;;;;2.60;1.45;;;20.90;1.00;;;;;;4844493;29;39581;-81
2023/05/20 17:07:21;;;;;;;14.57;1.88;;;21.00;1.00;;;;;;4863187;29;37083;-85
2023/05/20 17:09:47;;;;;;;6.53;1.50;;;20.90;1.00;;;;;;4851016;29;35991;-91
2023/05/20 17:12:13;;;;;;;4.53;1.45;;;20.90;1.00;;;;;;4866324;29;38219;-86
2023/05/20 17:14:39;;;;;;;4.88;1.70;;;20.70;1.00;;;;;;4852888;29;39572;-86
2023/05/20 17:17:05;;;;;;;5.50;2.00;;;20.70;1.00;;;;;;4855218;29;39535;-84